Time;durP1;ratioP1;P1;durP2;ratioP2;P2;SDS_P1;SDS_P2;PMS_P1;PMS_P2;Temp;Humidity;BMP_temperature;BMP_pressure;BME280_temperature;BME280_humidity;BME280_pressure;Samples;Min_cycle;Max_cycle;Signal;HPM_P1;HPM_P2
2022/06/26 00:02:13;;;;;;;3.27;2.47;;;24.70;61.40;;;25.15;41.57;98304.06;4980653;28;124086;-85
2022/06/26 00:04:40;;;;;;;3.53;2.60;;;24.70;61.70;;;25.12;41.66;98317.00;4977511;28;123800;-86
2022/06/26 00:07:07;;;;;;;3.00;2.70;;;24.60;62.40;;;25.08;41.92;98310.56;4986832;28;115288;-85
2022/06/26 00:09:33;;;;;;;3.40;2.60;;;24.60;61.90;;;25.06;42.09;98315.84;4983158;28;115340;-85
2022/06/26 00:12:01;;;;;;;2.90;2.63;;;24.50;62.00;;;25.04;41.90;98321.13;4973184;28;123257;-85
2022/06/26 00:14:28;;;;;;;3.00;2.70;;;24.50;62.20;;;25.02;41.81;98326.41;4992138;28;123699;-85
2022/06/26 00:16:54;;;;;;;3.20;2.70;;;24.50;62.40;;;25.00;42.12;98328.03;4978295;28;114616;-85
2022/06/26 00:19:21;;;;;;;2.70;2.33;;;24.50;62.60;;;24.99;42.42;98341.38;4976413;28;114043;-86
2022/06/26 00:22:08;;;;;;;3.47;3.00;;;24.50;62.80;;;24.98;42.08;98344.63;4977831;28;124054;-85
2022/06/26 00:24:36;;;;;;;2.60;2.30;;;24.40;62.90;;;24.92;42.63;98358.41;4949757;28;124608;-86
2022/06/26 00:27:03;;;;;;;3.13;2.60;;;24.40;63.10;;;24.87;42.77;98356.03;4932378;28;115070;-85
2022/06/26 00:29:33;;;;;;;2.70;2.50;;;23.70;62.50;;;24.83;42.61;98360.94;4932275;28;114165;-85
2022/06/26 00:32:02;;;;;;;3.53;2.33;;;24.30;63.30;;;24.82;42.59;98374.25;4945579;28;124639;-85
2022/06/26 00:34:29;;;;;;;2.43;2.23;;;24.30;63.60;;;24.81;42.75;98374.69;4948599;28;121437;-85
2022/06/26 00:36:56;;;;;;;2.50;1.90;;;24.30;63.70;;;24.77;43.05;98402.97;4949604;28;114519;-85
2022/06/26 00:39:23;;;;;;;3.20;2.37;;;24.20;63.70;;;24.72;42.68;98391.28;4946067;28;114142;-86
2022/06/26 00:41:53;;;;;;;2.83;2.00;;;24.20;63.80;;;24.65;42.82;98378.84;4946613;28;123978;-86
2022/06/26 00:44:22;;;;;;;2.00;1.80;;;24.20;63.90;;;24.64;42.85;98382.91;4932715;28;124174;-85
2022/06/26 00:46:50;;;;;;;2.90;1.80;;;24.10;63.80;;;24.65;42.99;98395.81;4927304;28;114339;-86
2022/06/26 00:49:18;;;;;;;2.30;1.50;;;24.10;63.80;;;24.66;42.79;98402.25;4932467;28;114568;-86
2022/06/26 00:51:49;;;;;;;1.70;1.40;;;24.20;63.90;;;24.66;42.79;98403.06;4948955;28;123589;-86
2022/06/26 00:54:17;;;;;;;2.10;1.30;;;24.10;63.80;;;24.68;42.58;98419.59;4945258;28;123885;-84
2022/06/26 00:56:44;;;;;;;1.63;1.30;;;24.10;63.90;;;24.67;42.50;98413.16;4931235;28;115282;-84
2022/06/26 00:59:11;;;;;;;1.20;1.10;;;24.10;63.70;;;24.65;42.57;98412.75;4946100;28;115246;-84
2022/06/26 01:01:38;;;;;;;1.40;1.30;;;24.10;63.70;;;24.61;42.59;98414.81;4951141;28;124139;-85
2022/06/26 01:04:05;;;;;;;1.93;1.40;;;24.10;63.70;;;24.56;42.34;98418.09;4979291;28;124057;-84
2022/06/26 01:06:32;;;;;;;2.33;1.53;;;24.00;63.70;;;24.50;42.51;98425.38;4976855;28;114577;-85
2022/06/26 01:08:59;;;;;;;1.43;1.33;;;24.00;63.80;;;24.40;42.79;98424.22;4982971;28;114163;-84
2022/06/26 01:11:27;;;;;;;1.90;1.30;;;23.90;63.90;;;24.34;42.93;98430.72;4980077;28;123749;-85
2022/06/26 01:13:56;;;;;;;2.50;1.67;;;23.90;64.00;;;24.26;43.14;98421.53;4977072;28;123592;-85
2022/06/26 01:16:24;;;;;;;1.60;1.43;;;23.80;64.10;;;24.20;43.19;98425.97;4972955;28;114786;-85
2022/06/26 01:18:55;;;;;;;1.93;1.50;;;23.70;64.30;;;24.15;43.37;98418.75;4981046;28;114062;-84
2022/06/26 01:21:24;;;;;;;1.63;1.20;;;23.70;64.50;;;24.12;43.50;98419.56;4982418;28;124666;-85
2022/06/26 01:23:52;;;;;;;1.20;1.10;;;23.70;64.60;;;24.11;43.50;98408.72;4984813;28;123849;-86
2022/06/26 01:26:20;;;;;;;2.07;1.50;;;23.60;64.90;;;24.10;43.38;98404.25;4985192;28;114240;-86
2022/06/26 01:28:47;;;;;;;1.27;1.10;;;23.60;65.00;;;24.11;43.80;98400.25;4981400;28;113460;-86
2022/06/26 01:31:14;;;;;;;1.50;1.30;;;23.60;65.00;;;24.13;43.46;98404.25;4982989;28;124050;-86
2022/06/26 01:33:40;;;;;;;1.20;1.10;;;23.60;65.30;;;24.17;43.65;98402.19;4987237;28;122921;-86
2022/06/26 01:36:07;;;;;;;1.20;1.10;;;23.60;65.40;;;24.22;43.38;98379.19;4983743;28;114040;-85
2022/06/26 01:38:34;;;;;;;1.40;1.30;;;23.60;65.50;;;24.25;43.51;98367.03;4971155;28;113656;-86
2022/06/26 01:41:01;;;;;;;1.03;0.90;;;25.20;67.10;;;24.29;43.60;98381.16;4974126;28;124053;-85
2022/06/26 01:43:32;;;;;;;1.60;1.20;;;23.70;65.90;;;24.33;43.61;98403.72;4975803;28;123762;-86
2022/06/26 01:45:59;;;;;;;1.23;1.10;;;23.70;66.00;;;24.36;43.68;98397.22;4970373;28;115521;-86
2022/06/26 01:48:27;;;;;;;1.30;1.20;;;23.70;66.10;;;24.39;43.58;98421.81;4972542;28;113943;-86
2022/06/26 01:50:57;;;;;;;1.27;1.17;;;23.70;66.20;;;24.39;43.61;98430.28;4980502;28;124534;-86
2022/06/26 01:53:24;;;;;;;1.20;1.00;;;23.80;66.40;;;24.37;43.87;98418.63;4972249;28;124402;-86
2022/06/26 01:55:50;;;;;;;1.80;1.37;;;23.80;66.40;;;24.33;43.89;98417.81;4977791;28;114631;-86
2022/06/26 01:58:17;;;;;;;1.30;1.20;;;23.80;66.50;;;24.30;43.92;98424.31;4976895;28;113836;-86
2022/06/26 02:00:46;;;;;;;1.40;1.30;;;23.70;66.50;;;24.30;43.90;98415.84;4980791;28;124537;-86
2022/06/26 02:03:15;;;;;;;1.60;1.10;;;23.70;67.40;;;24.29;44.24;98394.44;4979532;28;124323;-86
2022/06/26 02:05:43;;;;;;;1.27;1.10;;;23.70;66.90;;;24.30;44.06;98402.50;4972475;28;114356;-86
2022/06/26 02:08:10;;;;;;;2.27;1.53;;;23.70;67.00;;;24.30;44.20;98398.91;4981356;28;113834;-86
2022/06/26 02:13:37;;;;;;;1.40;1.30;;;23.70;67.30;;;24.29;44.15;98423.50;4973806;28;124360;-87
2022/06/26 02:16:17;;;;;;;2.33;1.47;;;23.70;67.40;;;24.23;44.18;98423.16;4972315;28;114621;-86
2022/06/26 02:18:47;;;;;;;1.33;1.20;;;23.70;67.60;;;24.23;44.56;98431.63;4982607;28;113978;-86
2022/06/26 02:21:18;;;;;;;1.97;1.20;;;23.60;67.60;;;24.21;44.46;98425.56;4971430;28;124420;-87
2022/06/26 02:23:46;;;;;;;1.50;1.40;;;23.60;67.80;;;24.23;44.34;98431.63;4974627;28;123755;-86
2022/06/26 02:26:13;;;;;;;1.20;1.10;;;23.60;67.90;;;24.23;44.49;98440.09;4976869;28;114995;-86
2022/06/26 02:28:40;;;;;;;2.77;1.37;;;23.60;68.10;;;24.23;44.43;98445.72;4973238;28;113750;-84
2022/06/26 02:31:07;;;;;;;5.03;1.13;;;23.60;68.10;;;24.19;44.75;98436.47;4984114;28;123105;-86
2022/06/26 02:33:35;;;;;;;1.30;1.20;;;23.60;68.20;;;24.17;44.55;98438.91;4978433;28;124305;-87
2022/06/26 02:36:05;;;;;;;11.83;1.50;;;23.60;68.20;;;24.15;44.73;98434.88;4980590;28;115143;-86
2022/06/26 02:38:34;;;;;;;1.50;1.40;;;23.60;68.40;;;24.16;44.69;98434.47;4978606;28;115021;-86
2022/06/26 02:41:02;;;;;;;1.50;1.20;;;23.60;68.60;;;24.15;44.72;98437.69;4986737;28;124140;-87
2022/06/26 02:43:47;;;;;;;1.70;1.50;;;23.60;68.80;;;24.13;44.78;98429.66;4985116;28;123792;-86
2022/06/26 02:46:14;;;;;;;1.50;1.40;;;23.60;68.80;;;24.12;44.82;98430.84;4995840;28;112562;-87
2022/06/26 02:48:40;;;;;;;1.43;1.33;;;23.50;69.00;;;24.14;45.04;98428.44;5007517;28;113605;-87
2022/06/26 02:51:07;;;;;;;1.20;1.10;;;23.50;69.20;;;24.13;44.95;98426.84;5009148;28;124834;-87
2022/06/26 02:53:33;;;;;;;1.23;1.13;;;23.60;69.50;;;24.14;45.07;98427.63;4977243;28;122717;-87
2022/06/26 02:56:00;;;;;;;1.13;1.03;;;23.50;69.60;;;24.14;45.10;98428.44;4973261;28;115076;-86
2022/06/26 02:58:27;;;;;;;1.23;1.13;;;23.50;69.70;;;24.14;45.04;98428.44;4987187;28;113898;-86
2022/06/26 03:00:53;;;;;;;1.57;1.30;;;23.50;69.80;;;24.14;45.13;98433.28;4987533;28;123883;-86
2022/06/26 03:03:20;;;;;;;1.53;1.20;;;23.50;69.80;;;24.10;45.14;98433.31;4984779;28;124195;-87
2022/06/26 03:05:46;;;;;;;1.47;1.20;;;23.50;69.90;;;24.08;45.35;98440.59;4989159;28;114550;-86
2022/06/26 03:08:13;;;;;;;1.40;1.30;;;23.50;70.00;;;24.05;45.32;98427.31;4976688;28;114197;-87
2022/06/26 03:10:39;;;;;;;2.23;1.40;;;23.50;70.00;;;24.02;45.37;98432.56;4981646;28;123975;-87
2022/06/26 03:13:06;;;;;;;1.30;1.20;;;23.50;70.10;;;23.99;45.37;98439.03;4977329;28;123953;-87
2022/06/26 03:15:33;;;;;;;1.70;1.60;;;23.50;70.20;;;23.99;45.40;98443.84;4977135;28;114095;-86
2022/06/26 03:18:02;;;;;;;1.57;1.20;;;23.40;70.20;;;23.99;45.34;98426.91;4989523;28;113973;-87
2022/06/26 03:20:29;;;;;;;1.40;1.20;;;23.40;70.30;;;23.98;45.39;98414.03;4981249;28;124113;-87
2022/06/26 03:22:56;;;;;;;1.40;1.30;;;23.40;70.30;;;23.97;45.37;98415.25;4983652;28;124604;-87
2022/06/26 03:25:23;;;;;;;1.37;1.20;;;23.40;70.40;;;23.96;45.53;98419.25;4983036;28;114527;-87
2022/06/26 03:27:50;;;;;;;1.47;1.33;;;23.40;70.50;;;23.96;45.03;98422.09;4981206;28;114463;-86
2022/06/26 03:30:17;;;;;;;1.17;1.07;;;23.40;71.30;;;23.95;45.32;98420.50;4982351;28;123374;-87
2022/06/26 03:32:43;;;;;;;1.30;1.20;;;23.40;70.70;;;23.94;45.32;98416.88;4981363;28;123752;-86
2022/06/26 03:35:11;;;;;;;1.73;1.20;;;23.40;70.80;;;23.93;45.44;98420.09;4983722;28;113547;-88
2022/06/26 03:37:37;;;;;;;1.20;1.10;;;23.40;70.70;;;23.90;45.29;98429.38;4973162;28;114250;-87
2022/06/26 03:40:05;;;;;;;1.73;1.27;;;23.30;70.60;;;23.88;45.26;98420.53;4984155;28;124224;-87
2022/06/26 03:42:31;;;;;;;1.20;1.10;;;23.30;70.60;;;23.88;45.43;98417.69;4986413;28;123690;-87
2022/06/26 03:44:58;;;;;;;1.30;1.20;;;23.30;70.60;;;23.86;45.31;98418.13;4984863;28;114037;-87
2022/06/26 03:47:24;;;;;;;1.20;1.00;;;23.30;70.60;;;23.87;45.08;98433.03;4974470;28;114411;-87
2022/06/26 03:49:53;;;;;;;1.00;0.90;;;23.30;70.70;;;23.86;45.22;98440.69;4981937;28;124109;-87
2022/06/26 03:52:22;;;;;;;1.20;1.10;;;23.30;70.70;;;23.88;45.19;98440.28;4967351;28;123401;-86
2022/06/26 03:54:49;;;;;;;2.90;1.20;;;23.20;70.70;;;23.90;45.18;98437.84;4987022;28;113847;-84
2022/06/26 03:57:16;;;;;;;1.20;1.10;;;23.30;70.70;;;23.90;45.21;98437.84;4983744;28;114275;-85
2022/06/26 03:59:43;;;;;;;1.20;1.10;;;23.30;70.70;;;23.92;45.00;98441.06;4977002;28;124213;-84
2022/06/26 04:02:09;;;;;;;1.57;1.00;;;22.50;69.90;;;23.94;45.20;98455.59;4972916;28;125193;-84
2022/06/26 04:04:36;;;;;;;1.37;1.27;;;23.30;70.70;;;23.96;45.08;98451.09;4976313;28;114402;-84
2022/06/26 04:07:03;;;;;;;1.30;1.20;;;23.40;70.90;;;23.98;45.18;98443.03;4977071;28;113982;-84
2022/06/26 04:09:29;;;;;;;1.40;1.10;;;23.40;70.90;;;24.02;45.00;98455.13;4989151;28;124479;-84
2022/06/26 04:11:56;;;;;;;2.53;1.00;;;23.40;70.90;;;24.03;45.17;98455.94;4983056;28;124872;-84
2022/06/26 04:14:22;;;;;;;1.77;1.30;;;23.40;70.90;;;24.05;45.08;98452.69;4968633;28;115917;-85
2022/06/26 04:16:49;;;;;;;1.20;0.90;;;23.40;70.90;;;24.03;45.13;98456.72;4976439;28;114828;-85
2022/06/26 04:19:15;;;;;;;1.20;1.10;;;23.50;70.90;;;24.02;45.06;98465.63;4961206;28;122333;-85
2022/06/26 04:21:42;;;;;;;1.20;1.10;;;23.50;70.90;;;24.01;44.93;98459.16;4996173;28;122310;-84
2022/06/26 04:24:08;;;;;;;1.50;1.00;;;23.50;70.80;;;24.01;44.93;98455.53;4968702;28;114192;-85
2022/06/26 04:26:35;;;;;;;1.17;1.07;;;23.50;70.80;;;24.03;44.90;98458.75;4974014;28;114499;-85
2022/06/26 04:29:02;;;;;;;1.07;0.97;;;23.40;70.70;;;24.00;44.89;98453.94;4977480;28;123636;-86
2022/06/26 04:31:28;;;;;;;2.20;1.10;;;23.40;70.60;;;23.99;44.98;98455.13;4983681;28;123820;-85
2022/06/26 04:33:55;;;;;;;1.00;0.90;;;23.40;70.60;;;23.98;44.80;98454.31;4961915;28;113329;-86
2022/06/26 04:36:22;;;;;;;2.10;1.20;;;23.40;70.80;;;23.98;45.02;98448.69;4983290;28;113921;-86
2022/06/26 04:38:48;;;;;;;1.77;1.20;;;23.40;70.90;;;23.99;45.11;98438.19;4970002;28;123888;-86
2022/06/26 04:44:05;;;;;;;1.10;1.00;;;23.40;71.10;;;23.99;45.03;98433.38;4981321;28;114778;-87
2022/06/26 04:46:33;;;;;;;1.10;0.90;;;23.40;71.20;;;24.01;45.18;98427.31;4969348;28;113951;-86
2022/06/26 04:48:59;;;;;;;1.73;1.40;;;23.40;71.30;;;24.02;45.18;98428.94;4971655;28;124103;-86
2022/06/26 04:51:26;;;;;;;1.13;1.03;;;23.40;71.50;;;24.03;45.31;98430.53;4971193;28;123883;-86
2022/06/26 04:53:53;;;;;;;1.63;1.00;;;23.40;71.60;;;24.04;45.26;98429.28;4974078;28;114380;-85
2022/06/26 04:56:19;;;;;;;1.40;1.10;;;23.40;71.80;;;24.06;45.36;98432.53;4972651;28;113905;-86
2022/06/26 04:58:47;;;;;;;1.53;1.00;;;23.40;72.00;;;24.07;45.71;98428.47;4982569;28;124203;-86
2022/06/26 05:01:14;;;;;;;1.90;1.60;;;23.50;72.40;;;24.08;45.85;98426.47;4986117;28;123409;-86
2022/06/26 05:03:41;;;;;;;1.87;1.43;;;23.50;72.40;;;24.09;45.67;98431.69;4988888;28;115324;-86
2022/06/26 05:06:07;;;;;;;1.30;1.20;;;23.50;72.60;;;24.09;45.81;98428.06;4986697;28;114616;-85
2022/06/26 05:08:34;;;;;;;1.47;1.37;;;23.50;72.70;;;24.09;45.87;98434.50;4987979;28;124106;-86
2022/06/26 05:11:00;;;;;;;1.30;1.20;;;23.50;72.80;;;24.12;45.74;98441.34;4973267;28;123905;-86
2022/06/26 05:13:27;;;;;;;1.40;1.30;;;23.50;72.90;;;24.11;45.79;98443.38;4979194;28;115209;-86
2022/06/26 05:15:54;;;;;;;1.27;1.17;;;23.50;73.00;;;24.13;45.99;98449.41;4973188;28;113920;-85
2022/06/26 05:18:20;;;;;;;1.37;1.10;;;23.50;73.10;;;24.13;45.77;98445.81;4981838;28;126009;-86
2022/06/26 05:20:47;;;;;;;1.57;1.20;;;23.50;73.10;;;24.13;46.00;98443.78;4972861;28;123873;-85
2022/06/26 05:23:14;;;;;;;1.50;1.13;;;23.50;73.10;;;24.13;45.80;98451.44;4978513;28;113443;-85
2022/06/26 05:25:42;;;;;;;1.23;1.13;;;23.50;73.30;;;24.12;46.21;98473.19;4971409;28;114426;-85
2022/06/26 05:28:09;;;;;;;1.50;1.30;;;23.50;73.40;;;24.10;46.03;98461.53;4971526;28;123647;-85
2022/06/26 05:30:35;;;;;;;1.83;1.47;;;23.50;73.50;;;24.09;46.16;98470.41;4972981;28;124038;-85
2022/06/26 05:33:02;;;;;;;1.37;1.27;;;23.50;73.70;;;24.07;46.43;98484.91;4975894;28;114911;-85
2022/06/26 05:35:29;;;;;;;1.70;1.43;;;23.50;73.80;;;24.05;46.64;98481.72;4987280;28;112276;-86
2022/06/26 05:37:56;;;;;;;1.37;1.27;;;23.50;73.90;;;24.04;46.62;98480.09;4980244;28;123803;-85
2022/06/26 05:40:23;;;;;;;1.30;1.20;;;23.50;74.10;;;24.04;46.56;98480.09;4974625;28;123985;-85
2022/06/26 05:42:50;;;;;;;1.23;1.13;;;23.50;74.20;;;24.05;46.70;98476.09;4981222;28;114405;-85
2022/06/26 05:45:17;;;;;;;1.43;1.20;;;23.50;74.30;;;24.05;46.37;98478.91;4977186;28;114484;-85
2022/06/26 05:47:43;;;;;;;3.47;1.30;;;23.50;74.30;;;24.03;46.66;98484.94;4973312;28;124102;-86
2022/06/26 05:50:10;;;;;;;1.20;1.10;;;23.50;74.30;;;24.06;46.43;98482.53;4986227;28;123776;-86
2022/06/26 05:52:36;;;;;;;1.70;1.37;;;23.50;74.30;;;24.06;46.48;98483.31;4979268;28;114590;-86
2022/06/26 05:55:03;;;;;;;1.20;1.10;;;23.50;74.40;;;24.08;46.69;98489.38;4980593;28;115368;-86
2022/06/26 05:57:30;;;;;;;1.27;1.17;;;23.50;74.40;;;24.08;46.49;98497.03;4983243;28;123105;-86
2022/06/26 05:59:56;;;;;;;1.13;1.03;;;23.50;74.40;;;24.07;46.33;98501.06;4971174;28;124402;-85
2022/06/26 06:02:23;;;;;;;1.10;1.00;;;23.50;74.40;;;24.08;46.39;98500.66;4985557;28;114693;-85
2022/06/26 06:04:50;;;;;;;1.10;1.00;;;23.50;74.50;;;24.11;46.69;98505.47;4983864;28;113029;-85
2022/06/26 06:07:17;;;;;;;1.50;1.30;;;23.50;74.50;;;24.16;46.46;98501.44;4975007;28;124833;-85
2022/06/26 06:09:43;;;;;;;1.17;1.00;;;23.50;74.50;;;24.19;46.12;98504.22;4981155;28;123611;-85
2022/06/26 06:12:10;;;;;;;1.70;1.30;;;23.60;74.50;;;24.22;45.93;98503.41;4973770;28;114199;-85
2022/06/26 06:14:36;;;;;;;1.27;1.17;;;23.60;74.20;;;24.24;45.22;98497.34;4966769;28;113671;-86
2022/06/26 06:17:35;;;;;;;1.20;1.10;;;23.60;73.10;;;24.30;44.92;98500.53;4972606;28;124243;-86
2022/06/26 06:19:50;;;;;;;1.30;1.20;;;23.60;72.70;;;24.34;44.66;98490.84;4978050;28;123698;-85
2022/06/26 06:22:16;;;;;;;2.43;1.00;;;23.60;72.30;;;24.39;44.75;98496.03;4972350;28;113892;-85
2022/06/26 06:24:43;;;;;;;1.83;1.13;;;23.70;72.20;;;24.45;44.61;98504.94;4981225;28;113922;-85
2022/06/26 06:27:09;;;;;;;1.13;1.00;;;23.80;72.50;;;24.52;44.53;98499.22;4983118;28;124024;-85
2022/06/26 06:29:36;;;;;;;1.50;1.20;;;23.90;72.50;;;24.63;44.28;98493.50;4983189;28;123653;-85
2022/06/26 06:32:03;;;;;;;1.20;1.00;;;23.90;72.30;;;24.71;44.21;98491.41;4975754;28;115227;-86
2022/06/26 06:34:29;;;;;;;1.20;1.07;;;24.00;72.20;;;24.74;43.86;98485.72;4979553;28;113224;-85
2022/06/26 06:36:56;;;;;;;1.23;1.10;;;24.00;71.60;;;24.78;43.40;98491.38;4977544;28;123945;-85
2022/06/26 06:39:23;;;;;;;1.30;0.90;;;24.00;71.10;;;24.83;43.54;98488.09;4977144;28;124001;-85
2022/06/26 06:41:50;;;;;;;1.23;1.10;;;24.10;71.00;;;24.92;43.40;98494.88;4986730;28;114564;-85
2022/06/26 06:44:16;;;;;;;2.03;1.50;;;24.20;70.70;;;24.96;43.25;98496.84;4987649;28;115034;-86
2022/06/26 06:46:43;;;;;;;2.07;1.43;;;24.20;70.30;;;24.98;43.00;98503.69;4980807;28;124063;-84
2022/06/26 06:49:09;;;;;;;1.77;1.30;;;24.30;70.40;;;25.01;43.03;98508.56;4988415;28;123282;-85
2022/06/26 06:51:36;;;;;;;1.30;1.20;;;24.30;71.10;;;25.08;43.15;98502.81;4973172;28;113253;-84
2022/06/26 06:54:02;;;;;;;1.20;1.00;;;24.40;70.40;;;25.12;43.18;98503.59;4956950;28;113663;-84
2022/06/26 06:56:29;;;;;;;1.70;1.33;;;25.80;71.40;;;25.18;42.77;98506.00;4970061;28;123104;-85
2022/06/26 06:58:55;;;;;;;1.30;1.20;;;24.50;70.00;;;25.19;43.16;98504.78;4980504;28;124388;-85
2022/06/26 07:01:22;;;;;;;1.80;1.43;;;24.60;70.00;;;25.25;42.84;98506.72;4986761;28;114455;-85
2022/06/26 07:03:48;;;;;;;2.03;1.30;;;24.60;70.10;;;25.32;43.25;98520.00;4974516;28;114074;-84
2022/06/26 07:06:15;;;;;;;4.40;1.50;;;24.60;70.30;;;25.33;42.78;98518.78;4980798;28;124184;-84
2022/06/26 07:08:41;;;;;;;1.30;1.20;;;24.70;70.20;;;25.37;42.86;98516.72;4974060;28;124348;-85
2022/06/26 07:11:08;;;;;;;2.40;1.33;;;24.70;70.20;;;25.35;42.27;98511.47;4975228;28;114692;-84
2022/06/26 07:13:35;;;;;;;1.27;1.17;;;24.70;69.10;;;25.36;42.45;98517.94;4984579;28;113787;-84
2022/06/26 07:16:03;;;;;;;2.80;1.20;;;24.70;69.30;;;25.41;42.47;98509.00;4968294;28;124082;-85
2022/06/26 07:18:30;;;;;;;2.60;1.60;;;24.80;69.70;;;25.47;42.44;98518.66;4976290;28;123397;-84
2022/06/26 07:20:57;;;;;;;1.97;1.50;;;24.80;69.60;;;25.52;42.60;98509.72;4977645;28;114527;-84
2022/06/26 07:23:23;;;;;;;2.10;1.40;;;24.90;69.70;;;25.63;42.57;98505.94;4992566;28;112960;-85
2022/06/26 07:25:50;;;;;;;5.47;1.17;;;24.90;69.70;;;25.73;42.29;98502.19;4969492;28;123242;-85
2022/06/26 07:28:16;;;;;;;1.67;1.30;;;25.00;69.80;;;25.81;42.50;98498.03;4981074;28;124395;-85
2022/06/26 07:30:43;;;;;;;2.03;1.23;;;25.10;69.70;;;25.90;42.26;98511.72;4989990;28;114221;-85
2022/06/26 07:34:12;;;;;;;1.70;1.30;;;25.20;69.60;;;25.98;42.03;98507.59;4975530;28;114968;-85
2022/06/26 07:35:56;;;;;;;1.10;1.00;;;25.30;70.20;;;26.02;41.72;98510.38;4983012;28;124069;-85
2022/06/26 07:38:23;;;;;;;2.47;1.17;;;25.30;69.00;;;26.07;42.11;98509.91;4970959;28;123973;-84
2022/06/26 07:40:52;;;;;;;1.87;1.33;;;25.40;69.00;;;26.12;41.86;98515.09;4983279;28;113929;-84
2022/06/26 07:43:56;;;;;;;1.87;1.30;;;25.40;68.70;;;26.13;41.81;98511.03;4972540;28;113937;-85
2022/06/26 07:46:23;;;;;;;1.50;1.40;;;24.70;67.60;;;26.16;41.21;98516.63;4989417;28;124043;-84
2022/06/26 07:52:32;;;;;;;1.77;1.23;;;25.60;67.40;;;26.14;41.11;98513.44;5008076;28;115332;-85
2022/06/26 07:54:59;;;;;;;1.70;1.30;;;25.50;67.10;;;26.15;40.68;98508.59;4984497;28;114707;-84
2022/06/26 07:57:25;;;;;;;2.33;1.50;;;25.50;67.00;;;26.18;41.01;98505.69;4995293;28;124328;-84
2022/06/26 07:59:51;;;;;;;3.00;1.10;;;25.50;67.10;;;26.26;40.70;98506.41;4979500;28;123350;-85
2022/06/26 08:02:18;;;;;;;1.37;1.20;;;25.60;67.00;;;26.34;41.14;98509.94;4977898;28;114785;-84
2022/06/26 08:04:44;;;;;;;1.40;1.30;;;25.70;67.10;;;26.38;40.56;98503.00;4985439;28;114010;-84
2022/06/26 08:07:11;;;;;;;1.47;1.20;;;25.70;66.60;;;26.38;40.38;98491.69;4990911;28;123373;-84
2022/06/26 08:09:38;;;;;;;1.20;1.10;;;25.70;66.50;;;26.40;40.70;98492.03;4984625;28;123871;-84
2022/06/26 08:12:05;;;;;;;1.37;1.27;;;25.70;66.50;;;26.39;40.77;98498.13;4977812;28;115450;-84
2022/06/26 08:14:31;;;;;;;2.13;1.50;;;25.70;66.30;;;26.39;40.73;98498.94;4970864;28;114652;-84
2022/06/26 08:16:58;;;;;;;2.10;1.60;;;25.80;66.30;;;26.40;40.29;98494.06;4977254;28;123305;-83
2022/06/26 08:19:24;;;;;;;3.13;1.60;;;25.80;66.20;;;26.40;40.71;98505.41;4983767;28;122895;-84
2022/06/26 08:22:02;;;;;;;1.60;1.50;;;25.80;66.30;;;26.39;40.45;98498.94;4974611;28;115246;-84
2022/06/26 08:24:33;;;;;;;2.67;1.23;;;25.80;66.30;;;26.38;40.28;98491.69;4974753;28;115468;-85
2022/06/26 08:27:00;;;;;;;1.50;1.40;;;25.80;66.10;;;26.40;40.90;98506.19;4966261;28;123982;-84
2022/06/26 08:29:27;;;;;;;1.40;1.13;;;25.80;66.20;;;26.42;40.32;98509.41;4975854;28;124015;-85
2022/06/26 08:31:54;;;;;;;1.67;1.30;;;25.80;66.10;;;26.44;40.38;98501.28;4971861;28;114923;-84
2022/06/26 08:34:21;;;;;;;1.40;1.20;;;25.90;66.80;;;26.45;40.67;98505.72;4976703;28;113829;-86
2022/06/26 08:36:48;;;;;;;1.27;1.17;;;25.90;66.40;;;26.45;40.65;98507.75;4979106;28;123544;-86
2022/06/26 08:39:14;;;;;;;1.10;1.00;;;25.90;65.60;;;26.44;40.23;98512.63;4989133;28;123543;-85
2022/06/26 08:41:44;;;;;;;1.57;1.30;;;25.90;65.60;;;26.44;40.16;98506.97;4986110;28;112614;-85
2022/06/26 08:44:12;;;;;;;1.60;1.40;;;25.90;65.50;;;26.46;39.98;98512.19;4976121;28;113157;-84
2022/06/26 08:46:45;;;;;;;1.60;1.20;;;25.90;65.40;;;26.42;40.53;98502.94;4990448;28;123983;-86
2022/06/26 08:49:15;;;;;;;1.33;1.23;;;25.90;65.30;;;26.41;40.38;98510.66;4976757;28;123697;-85
2022/06/26 08:51:44;;;;;;;1.33;1.10;;;25.90;65.40;;;26.45;40.17;98502.88;4978011;28;113705;-84
2022/06/26 08:54:12;;;;;;;1.30;1.20;;;25.90;65.40;;;26.51;40.36;98508.91;4979084;28;114008;-86
2022/06/26 08:56:42;;;;;;;1.40;1.27;;;26.00;65.50;;;26.55;40.62;98508.88;4984956;28;124767;-86
2022/06/26 08:59:11;;;;;;;3.60;1.30;;;26.00;65.70;;;26.62;40.24;98511.56;4979304;28;123886;-86
2022/06/26 09:01:39;;;;;;;2.60;1.60;;;26.00;65.90;;;26.66;40.13;98507.47;4979677;28;114088;-87
2022/06/26 09:04:07;;;;;;;1.30;1.20;;;26.00;65.70;;;26.67;40.59;98500.56;4986742;28;114026;-86
2022/06/26 09:06:35;;;;;;;1.70;1.13;;;26.10;65.70;;;26.71;40.50;98509.03;4982878;28;124218;-87
2022/06/26 09:09:22;;;;;;;2.30;2.10;;;26.10;65.90;;;26.74;40.57;98505.31;4970599;28;123533;-87
2022/06/26 09:11:53;;;;;;;1.70;1.60;;;26.20;65.70;;;26.77;39.94;98507.31;4968878;28;115134;-88
2022/06/26 09:14:21;;;;;;;1.60;1.50;;;26.20;65.50;;;26.80;40.30;98511.31;4970128;28;114861;-87
2022/06/26 09:16:49;;;;;;;2.20;1.40;;;26.20;65.40;;;26.81;40.17;98515.75;4983330;28;123135;-86
2022/06/26 09:19:20;;;;;;;2.47;1.37;;;26.20;65.00;;;26.77;40.07;98515.00;4981362;28;124018;-87
2022/06/26 09:21:47;;;;;;;2.50;1.67;;;26.20;64.50;;;26.72;39.59;98512.66;4980960;28;114346;-89
2022/06/26 09:24:17;;;;;;;2.70;1.57;;;26.20;64.50;;;26.67;39.54;98502.59;4991829;28;112048;-87
2022/06/26 09:26:45;;;;;;;1.50;1.30;;;26.20;64.30;;;26.67;39.92;98508.25;4971096;28;124084;-86
2022/06/26 09:29:15;;;;;;;2.60;1.37;;;26.10;64.40;;;26.69;39.85;98511.47;4975726;28;124233;-88
2022/06/26 09:31:43;;;;;;;2.57;1.30;;;26.20;64.50;;;26.73;39.85;98515.03;4972903;28;114412;-88
2022/06/26 09:34:26;;;;;;;1.67;1.47;;;26.20;64.50;;;26.74;39.83;98516.66;4969818;28;114183;-88
2022/06/26 09:37:02;;;;;;;1.30;1.20;;;26.20;64.50;;;26.76;40.03;98513.38;4973117;28;124203;-88
2022/06/26 09:39:34;;;;;;;1.30;1.20;;;26.30;64.20;;;26.76;39.74;98513.38;4979623;28;123511;-88
2022/06/26 09:42:22;;;;;;;4.83;1.37;;;26.20;64.20;;;26.79;39.59;98515.38;4981068;28;114402;-88
2022/06/26 09:44:54;;;;;;;1.23;1.03;;;26.30;64.20;;;26.84;39.85;98517.72;4974044;28;114017;-88
2022/06/26 09:47:26;;;;;;;1.60;1.10;;;26.30;64.30;;;26.92;39.39;98512.72;4967835;28;124316;-84
2022/06/26 09:49:57;;;;;;;1.20;1.10;;;26.30;64.30;;;26.96;39.48;98519.16;4982612;28;123895;-83
2022/06/26 09:52:28;;;;;;;1.40;1.23;;;26.40;64.20;;;27.02;39.38;98514.59;4975425;28;114790;-84
2022/06/26 09:55:32;;;;;;;1.27;1.10;;;26.40;64.20;;;27.04;39.80;98509.31;4985901;28;114705;-83
2022/06/26 09:57:59;;;;;;;1.50;1.40;;;26.50;64.00;;;27.10;39.29;98513.25;4974902;28;124470;-82
2022/06/26 10:00:30;;;;;;;1.90;1.17;;;26.50;63.90;;;27.15;39.74;98509.13;4980552;28;124337;-82
2022/06/26 10:08:32;;;;;;;1.60;1.27;;;26.60;63.90;;;27.32;39.03;98496.66;4974256;28;124940;-83
2022/06/26 10:11:01;;;;;;;1.70;1.13;;;26.70;63.80;;;27.33;38.89;98503.97;4977208;28;124162;-85
2022/06/26 10:13:30;;;;;;;2.07;1.23;;;26.80;63.60;;;27.34;39.15;98496.25;4968426;28;113776;-85
2022/06/26 10:16:30;;;;;;;1.47;1.37;;;26.80;63.40;;;27.31;39.05;98501.53;4978752;28;114044;-90
2022/06/26 10:19:36;;;;;;;4.00;1.87;;;26.80;63.50;;;27.31;39.26;98507.22;4975199;28;124238;-90
2022/06/26 10:22:03;;;;;;;1.30;1.20;;;26.80;63.60;;;27.37;39.30;98498.22;4985189;28;124468;-84
2022/06/26 10:24:30;;;;;;;1.67;1.40;;;26.80;63.80;;;27.43;39.45;98504.97;4990455;28;113240;-88
2022/06/26 10:27:00;;;;;;;1.67;1.40;;;26.90;63.80;;;27.40;39.15;98498.13;4982987;28;113161;-88
2022/06/26 10:29:38;;;;;;;1.20;1.10;;;26.60;63.50;;;27.41;39.09;98493.28;4971540;28;121975;-88
2022/06/26 10:32:07;;;;;;;1.40;1.30;;;26.90;63.60;;;27.43;39.42;98500.13;4982552;28;124317;-91
2022/06/26 10:34:34;;;;;;;2.70;1.20;;;26.90;63.70;;;27.45;39.75;98489.13;4988565;28;114428;-91